createdAt,value
2023-04-01T00:02:37.823Z,101389.69
2023-04-01T00:07:58.040Z,101393.84
2023-04-01T00:13:05.345Z,101380.56
2023-04-01T00:18:10.877Z,101393.09
2023-04-01T00:23:17.667Z,101376.22
2023-04-01T00:28:35.123Z,101353.91
2023-04-01T00:33:52.596Z,101345.06
2023-04-01T00:39:01.937Z,101342.56
2023-04-01T00:44:23.928Z,101336.28
2023-04-01T00:49:34.652Z,101330.22
2023-04-01T00:54:42.575Z,101332.50
2023-04-01T01:00:02.484Z,101345.66
2023-04-01T01:05:11.053Z,101331.81
2023-04-01T01:10:21.342Z,101341.03
2023-04-01T01:15:28.885Z,101320.09
2023-04-01T01:20:56.184Z,101309.50
2023-04-01T01:26:21.191Z,101301.78
2023-04-01T01:31:41.142Z,101307.06
2023-04-01T01:37:05.615Z,101323.88
2023-04-01T01:42:12.045Z,101319.44
2023-04-01T01:47:17.619Z,101305.59
2023-04-01T01:52:25.187Z,101294.63
2023-04-01T01:57:36.622Z,101299.84
2023-04-01T02:02:42.092Z,101298.47
2023-04-01T02:08:01.584Z,101300.06
2023-04-01T02:13:14.534Z,101280.88
2023-04-01T02:18:21.262Z,101282.44
2023-04-01T02:23:31.234Z,101280.72
2023-04-01T02:28:42.334Z,101277.91
2023-04-01T02:33:46.192Z,101273.22
2023-04-01T02:38:55.669Z,101275.91
2023-04-01T02:44:01.261Z,101271.72
2023-04-01T02:49:10.398Z,101275.59
2023-04-01T02:54:18.093Z,101273.59
2023-04-01T02:59:21.264Z,101263.94
2023-04-01T03:04:26.296Z,101272.34
2023-04-01T03:09:42.430Z,101277.16
2023-04-01T03:14:58.774Z,101264.06
2023-04-01T03:20:17.574Z,101254.50
2023-04-01T03:25:22.381Z,101250.28
2023-04-01T03:30:29.663Z,101230.03
2023-04-01T03:35:38.230Z,101244.19
2023-04-01T03:40:49.714Z,101222.25
2023-04-01T03:46:02.287Z,101211.63
2023-04-01T03:51:12.064Z,101217.66
2023-04-01T03:56:18.542Z,101217.81
2023-04-01T04:01:32.311Z,101222.22
2023-04-01T04:06:37.928Z,101226.94
2023-04-01T04:12:00.944Z,101235.78
2023-04-01T04:17:10.652Z,101230.84
2023-04-01T04:22:31.315Z,101229.75
2023-04-01T04:27:39.026Z,101230.69
2023-04-01T04:32:44.922Z,101237.50
2023-04-01T04:37:56.782Z,101235.13
2023-04-01T04:43:01.328Z,101233.84
2023-04-01T04:48:06.737Z,101235.63
2023-04-01T04:53:16.092Z,101236.69
2023-04-01T04:58:27.529Z,101237.34
2023-04-01T05:56:03.014Z,101265.53
2023-04-01T06:01:22.046Z,101280.56
2023-04-01T06:06:29.338Z,101272.50
2023-04-01T06:11:56.590Z,101264.13
2023-04-01T06:17:19.188Z,101274.75
2023-04-01T06:22:54.634Z,101265.84
2023-04-01T06:28:08.888Z,101262.88
2023-04-01T06:33:31.269Z,101269.75
2023-04-01T06:39:09.695Z,101269.16
2023-04-01T06:44:28.514Z,101267.09
2023-04-01T06:49:52.912Z,101285.78
2023-04-01T06:55:02.382Z,101281.72
2023-04-01T07:00:28.491Z,101285.47
2023-04-01T07:05:34.890Z,101288.06
2023-04-01T07:10:52.996Z,101289.63
2023-04-01T07:16:13.253Z,101291.00
2023-04-01T07:21:27.897Z,101300.94
2023-04-01T07:26:41.232Z,101289.25
2023-04-01T07:32:36.195Z,101296.72
2023-04-01T07:37:53.487Z,101292.56
2023-04-01T07:43:26.509Z,101289.03
2023-04-01T07:48:40.517Z,101292.34
2023-04-01T07:53:51.281Z,101280.91
2023-04-01T07:59:07.979Z,101256.34
2023-04-01T08:04:43.796Z,101257.53
2023-04-01T08:10:03.801Z,101244.56
2023-04-01T08:15:17.556Z,101248.47
2023-04-01T08:20:35.506Z,101238.28
2023-04-01T08:26:03.985Z,101241.25
2023-04-01T08:31:11.842Z,101229.09
2023-04-01T08:36:27.314Z,101230.44
2023-04-01T08:42:09.423Z,101209.84
2023-04-01T08:47:28.860Z,101213.41
2023-04-01T08:52:53.452Z,101230.56
2023-04-01T08:58:13.517Z,101244.03
2023-04-01T09:03:48.462Z,101255.56
2023-04-01T09:09:20.498Z,101273.34
2023-04-01T09:14:40.670Z,101266.53
2023-04-01T09:20:07.345Z,101267.69
2023-04-01T09:25:39.666Z,101266.16
2023-04-01T09:31:23.563Z,101275.13
2023-04-01T09:36:48.280Z,101275.44
2023-04-01T09:42:16.719Z,101272.66
2023-04-01T09:47:41.500Z,101272.09
2023-04-01T09:52:52.525Z,101277.94
2023-04-01T09:58:51.179Z,101287.31
2023-04-01T10:04:19.241Z,101294.53
2023-04-01T10:10:08.844Z,101297.94
2023-04-01T10:16:10.447Z,101298.16
2023-04-01T10:21:35.125Z,101303.53
2023-04-01T10:27:06.817Z,101299.41
2023-04-01T10:32:57.980Z,101293.66
2023-04-01T10:38:45.533Z,101296.22
2023-04-01T10:44:24.923Z,101298.81
2023-04-01T10:50:05.059Z,101299.59
2023-04-01T10:55:36.673Z,101302.56
2023-04-01T11:01:05.944Z,101298.97
2023-04-01T11:06:42.182Z,101291.38
2023-04-01T11:12:26.127Z,101283.50
2023-04-01T11:18:16.742Z,101278.97
2023-04-01T11:24:02.225Z,101263.56
2023-04-01T11:29:56.633Z,101266.41
2023-04-01T11:35:25.145Z,101259.22
2023-04-01T11:40:46.584Z,101251.09
2023-04-01T11:46:25.397Z,101230.19
2023-04-01T12:37:03.007Z,101161.75
2023-04-01T12:42:16.527Z,101158.03
2023-04-01T12:47:59.102Z,101161.41
2023-04-01T12:53:50.660Z,101173.31
2023-04-01T12:59:26.242Z,101176.25
2023-04-01T13:05:05.730Z,101177.84
2023-04-01T13:10:45.574Z,101172.72
2023-04-01T13:15:55.469Z,101179.75
2023-04-01T13:21:12.976Z,101189.09
2023-04-01T13:26:25.202Z,101170.56
2023-04-01T13:31:56.426Z,101177.97
2023-04-01T13:37:30.325Z,101187.63
2023-04-01T13:42:42.372Z,101185.84
2023-04-01T13:48:17.383Z,101172.84
2023-04-01T13:53:37.796Z,101165.63
2023-04-01T13:59:02.326Z,101159.25
2023-04-01T14:04:44.700Z,101157.63
2023-04-01T14:10:01.957Z,101143.69
2023-04-01T14:15:32.213Z,101152.31
2023-04-01T14:20:53.080Z,101155.47
2023-04-01T14:26:50.104Z,101153.09
2023-04-01T14:32:12.198Z,101148.25
2023-04-01T14:38:01.401Z,101141.66
2023-04-01T14:43:32.532Z,101141.25
2023-04-01T14:48:41.303Z,101141.75
2023-04-01T14:53:57.004Z,101139.66
2023-04-01T14:59:09.312Z,101148.06
2023-04-01T15:04:45.832Z,101152.63
2023-04-01T15:10:01.154Z,101158.72
2023-04-01T15:15:22.528Z,101165.22
2023-04-01T16:25:20.195Z,101120.88
2023-04-01T16:30:47.391Z,101111.47
2023-04-01T16:35:59.616Z,101112.75
2023-04-01T16:41:18.550Z,101122.47
2023-04-01T16:46:45.807Z,101105.53
2023-04-01T16:52:07.097Z,101111.97
2023-04-01T16:57:29.241Z,101116.03
2023-04-01T17:02:40.651Z,101115.16
2023-04-01T17:07:57.190Z,101119.13
2023-04-01T17:13:32.758Z,101118.00
2023-04-01T17:18:46.606Z,101118.00
2023-04-01T17:23:53.821Z,101115.72
2023-04-01T17:29:03.331Z,101107.63
2023-04-01T17:34:26.017Z,101116.31
2023-04-01T17:39:46.384Z,101117.47
2023-04-01T17:45:07.753Z,101128.19
2023-04-01T17:50:28.114Z,101130.84
2023-04-01T17:55:46.505Z,101135.84
2023-04-01T18:01:23.512Z,101123.09
2023-04-01T18:06:39.834Z,101132.66
2023-04-01T18:11:55.124Z,101141.22
2023-04-01T18:17:15.073Z,101132.97
2023-04-01T18:22:23.267Z,101135.38
2023-04-01T18:27:48.482Z,101143.13
2023-04-01T18:32:58.873Z,101133.72
2023-04-01T18:38:08.602Z,101152.28
2023-04-01T18:43:38.670Z,101168.88
2023-04-01T18:48:53.870Z,101176.31
2023-04-01T18:54:01.444Z,101174.81
2023-04-01T18:59:11.005Z,101182.00
2023-04-01T19:04:40.764Z,101187.19
2023-04-01T19:09:52.120Z,101187.72
2023-04-01T19:15:11.391Z,101195.88
2023-04-01T19:20:25.357Z,101207.81
2023-04-01T19:25:40.485Z,101212.91
2023-04-01T19:30:56.663Z,101221.44
2023-04-01T19:36:12.524Z,101221.44
2023-04-01T19:41:44.897Z,101228.69
2023-04-01T19:46:52.985Z,101234.56
2023-04-01T19:52:06.482Z,101230.31
2023-04-01T19:57:20.842Z,101234.72
2023-04-01T20:02:43.455Z,101251.38
2023-04-01T20:08:05.210Z,101254.63
2023-04-01T20:13:19.518Z,101271.88
2023-04-01T20:18:35.227Z,101270.63
2023-04-01T20:23:52.219Z,101285.69
2023-04-01T20:29:22.320Z,101287.66
2023-04-01T20:34:58.868Z,101298.00
2023-04-01T20:40:36.351Z,101307.09
2023-04-01T20:45:50.135Z,101313.56
2023-04-01T20:50:56.922Z,101322.84
2023-04-01T20:56:33.046Z,101329.66
2023-04-01T21:01:46.105Z,101334.00
2023-04-01T21:07:21.742Z,101345.91
2023-04-01T21:12:40.117Z,101341.66
2023-04-01T21:18:00.556Z,101345.78
2023-04-01T21:23:22.657Z,101344.44
2023-04-01T21:28:44.572Z,101354.63
2023-04-01T21:34:07.002Z,101359.06
2023-04-01T21:39:30.299Z,101370.59
2023-04-01T21:45:01.016Z,101365.88
2023-04-01T21:50:46.727Z,101361.72
2023-04-01T21:56:24.398Z,101367.16
2023-04-01T22:02:15.973Z,101372.13
2023-04-01T22:07:46.767Z,101381.31
2023-04-01T22:12:57.126Z,101372.81
2023-04-01T22:18:10.708Z,101383.94
2023-04-01T22:23:32.381Z,101379.50
2023-04-01T22:28:48.650Z,101377.03
2023-04-01T22:34:35.551Z,101387.06
2023-04-01T22:40:02.157Z,101390.25
2023-04-01T22:45:26.256Z,101391.91
2023-04-01T22:50:41.067Z,101400.13
2023-04-01T22:55:53.787Z,101405.88
2023-04-01T23:01:11.795Z,101393.38
2023-04-01T23:06:30.619Z,101404.34
2023-04-01T23:11:37.980Z,101407.03
2023-04-01T23:16:48.304Z,101398.38
2023-04-01T23:22:01.382Z,101398.16
2023-04-01T23:27:11.955Z,101403.41
2023-04-01T23:32:22.281Z,101403.50
2023-04-01T23:37:29.544Z,101412.84
2023-04-01T23:42:36.242Z,101409.09
2023-04-01T23:47:46.235Z,101413.75
2023-04-01T23:52:58.125Z,101416.63
2023-04-01T23:58:16.439Z,101411.34
